Nearby METAR Reports

 

KPBH - Phillips, Wisconsin, USA
Distance from station: SE 13mi, 21km
Updated: 03/06/2021 4:55am
Clear
Clear
 Wind from calm
Wind: Calm
Temperature: 9°F , -13°C
Dew Point: 7°F , -14°C
Humidity: 92%
Barometer: 30.33 inHg , 1027.1 hPa
Clouds: Clear
Visibility: 10 miles , 16 km
2021/03/06 10:55 KPBH 061055Z AUTO 00000KT 10SM CLR M13/M14 A3033 RMK AO2 T11271140
KRCX - Ladysmith/Rusk, Wisconsin, USA
Distance from station: SW 29mi, 46km
Updated: 03/06/2021 4:55am

 Wind from calm
Wind: Calm
Temperature: 16°F , -9°C
Dew Point: 12°F , -11°C
Humidity: 86%
Barometer: 30.37 inHg , 1028.4 hPa
Visibility: 10 miles , 16 km
2021/03/06 10:55 KRCX 061055Z AUTO 00000KT 10SM M09/M11 A3037 RMK AO2 T10951111
 
KD25 - Manitowish Water, Wisconsin, USA
Distance from station: ENE 41mi, 66km
Updated: 03/06/2021 4:55am
Clear
Clear
 Wind from calm
Wind: Calm
Temperature: 7°F , -14°C
Dew Point: 3°F , -16°C
Humidity: 85%
Barometer: 30.32 inHg , 1026.8 hPa
Clouds: Clear
Visibility: 10 miles , 16 km
2021/03/06 10:55 KD25 061055Z AUTO 00000KT 10SM CLR M14/M16 A3032 RMK AO2 T11431158
KHYR - Hayward, Wisconsin, USA
Distance from station: WNW 42mi, 68km
Updated: 03/06/2021 4:53am
Clear
Clear
 Wind from NNE
Wind: NNE 3 mph , 6 km/h
Temperature: 12°F , -11°C
Dew Point: 9°F , -13°C
Humidity: 85%
Barometer: 30.35 inHg , 1027.8 hPa
Clouds: Clear
Visibility: 10 miles , 16 km
2021/03/06 10:53 KHYR 061053Z AUTO 02003KT 10SM CLR M11/M13 A3035 RMK AO2 SLP298 I1000 T11061128
 
KARV - Minocqua/Woodruf, Wisconsin, USA
Distance from station: E 44mi, 71km
Updated: 03/06/2021 4:55am
Clear
Clear
 Wind from calm
Wind: Calm
Temperature: 18°F , -8°C
Dew Point: 9°F , -13°C
Humidity: 68%
Barometer: 30.32 inHg , 1026.8 hPa
Clouds: Clear
Visibility: 10 miles , 16 km
2021/03/06 10:55 KARV 061055Z AUTO 00000KT 10SM CLR M08/M13 A3032 RMK AO2 T10851127
KTKV - Tomahawk Regnl, Wisconsin, USA
Distance from station: ESE 46mi, 74km
Updated: 03/06/2021 4:55am

 Wind from calm
Wind: Calm
Temperature: 9°F , -13°C
Dew Point: 7°F , -14°C
Humidity: 92%
Barometer: 30.34 inHg , 1027.4 hPa
Visibility: 10 miles , 16 km
2021/03/06 10:55 KTKV 061055Z AUTO 00000KT 10SM M13/M14 A3034 RMK AO2 T11311143 PWINO